createdAt,value
2022-10-11T00:00:06.068Z,11.69
2022-10-11T00:05:29.150Z,11.67
2022-10-11T00:10:34.922Z,11.64
2022-10-11T00:15:39.891Z,11.59
2022-10-11T00:20:42.776Z,11.55
2022-10-11T00:25:45.574Z,11.49
2022-10-11T00:30:49.098Z,11.46
2022-10-11T00:35:52.066Z,11.48
2022-10-11T00:40:55.112Z,11.42
2022-10-11T00:45:58.017Z,11.30
2022-10-11T00:51:07.082Z,11.19
2022-10-11T00:56:17.445Z,11.09
2022-10-11T01:01:20.620Z,11.03
2022-10-11T01:06:23.659Z,10.96
2022-10-11T01:11:29.227Z,10.93
2022-10-11T01:17:07.054Z,10.90
2022-10-11T01:22:35.566Z,10.83
2022-10-11T01:27:58.835Z,10.78
2022-10-11T01:33:21.460Z,10.76
2022-10-11T01:38:35.163Z,10.75
2022-10-11T01:43:40.012Z,10.75
2022-10-11T01:48:55.205Z,10.73
2022-10-11T01:55:08.260Z,10.66
2022-10-11T02:00:23.142Z,10.59
2022-10-11T02:05:35.724Z,10.53
2022-10-11T02:10:50.144Z,10.42
2022-10-11T02:15:56.322Z,10.31
2022-10-11T02:21:02.300Z,10.23
2022-10-11T02:26:07.415Z,10.18
2022-10-11T02:31:12.636Z,10.11
2022-10-11T02:36:25.358Z,10.01
2022-10-11T02:41:33.150Z,9.90
2022-10-11T02:46:37.609Z,9.82
2022-10-11T02:51:40.923Z,9.75
2022-10-11T02:56:43.824Z,9.67
2022-10-11T03:01:46.795Z,9.61
2022-10-11T03:06:49.632Z,9.58
2022-10-11T03:11:52.743Z,9.57
2022-10-11T03:16:55.776Z,9.56
2022-10-11T03:22:01.115Z,9.59
2022-10-11T03:27:04.013Z,9.67
2022-10-11T03:32:06.824Z,9.74
2022-10-11T03:37:10.336Z,9.83
2022-10-11T03:42:14.040Z,9.92
2022-10-11T03:47:17.370Z,10.02
2022-10-11T03:52:20.480Z,10.09
2022-10-11T03:57:24.001Z,10.16
2022-10-11T04:02:27.108Z,10.25
2022-10-11T04:07:29.908Z,10.34
2022-10-11T04:12:33.190Z,10.40
2022-10-11T04:17:35.921Z,10.41
2022-10-11T04:22:38.926Z,10.41
2022-10-11T04:27:42.140Z,10.38
2022-10-11T04:32:45.357Z,10.33
2022-10-11T04:37:48.258Z,10.32
2022-10-11T04:42:53.413Z,10.32
2022-10-11T04:47:56.318Z,10.33
2022-10-11T04:52:59.221Z,10.32
2022-10-11T04:58:02.491Z,10.35
2022-10-11T05:03:05.335Z,10.38
2022-10-11T05:08:08.445Z,10.38
2022-10-11T05:13:11.246Z,10.43
2022-10-11T05:18:14.047Z,10.46
2022-10-11T05:23:16.951Z,10.48
2022-10-11T05:28:19.802Z,10.51
2022-10-11T05:33:23.580Z,10.54
2022-10-11T05:38:26.940Z,10.53
2022-10-11T05:43:30.420Z,10.53
2022-10-11T05:48:33.812Z,10.58
2022-10-11T05:53:38.170Z,10.65
2022-10-11T05:58:41.067Z,10.91
2022-10-11T06:03:44.177Z,11.33
2022-10-11T06:08:47.909Z,11.39
2022-10-11T06:13:54.623Z,12.02
2022-10-11T06:18:58.202Z,12.56
2022-10-11T06:24:02.145Z,13.42
2022-10-11T06:29:05.668Z,13.84
2022-10-11T06:34:08.977Z,14.09
2022-10-11T06:39:12.196Z,15.65
2022-10-11T06:44:15.351Z,16.37
2022-10-11T06:49:23.061Z,16.31
2022-10-11T06:54:26.968Z,16.39
2022-10-11T06:59:29.746Z,18.75
2022-10-11T07:04:34.187Z,21.13
2022-10-11T07:09:37.042Z,22.93
2022-10-11T07:14:40.011Z,24.12
2022-10-11T07:19:42.798Z,24.68
2022-10-11T07:24:45.802Z,25.45
2022-10-11T07:29:48.608Z,26.16
2022-10-11T07:34:51.406Z,24.20
2022-10-11T07:39:54.719Z,22.58
2022-10-11T07:44:57.523Z,21.96
2022-10-11T07:50:00.426Z,24.11
2022-10-11T07:55:03.338Z,26.81
2022-10-11T08:00:07.175Z,28.59
2022-10-11T08:05:09.933Z,29.86
2022-10-11T08:10:12.770Z,28.93
2022-10-11T08:15:16.581Z,26.23
2022-10-11T08:20:19.491Z,25.42
2022-10-11T08:25:22.545Z,23.59
2022-10-11T08:30:25.404Z,22.88
2022-10-11T08:35:28.716Z,25.35
2022-10-11T08:40:35.314Z,25.20
2022-10-11T08:45:53.472Z,26.19
2022-10-11T08:50:57.680Z,28.08
2022-10-11T08:56:01.472Z,30.39
2022-10-11T09:01:07.152Z,32.65
2022-10-11T09:06:25.464Z,34.74
2022-10-11T09:11:47.619Z,35.92
2022-10-11T09:16:55.846Z,36.61
2022-10-11T09:22:10.937Z,37.24
2022-10-11T09:27:25.894Z,38.31
2022-10-11T09:32:42.720Z,37.11
2022-10-11T09:38:06.248Z,34.59
2022-10-11T09:43:09.629Z,32.81
2022-10-11T09:48:30.792Z,31.78
2022-10-11T09:54:05.439Z,32.18
2022-10-11T09:59:31.386Z,33.98
2022-10-11T10:04:34.499Z,34.44
2022-10-11T10:09:38.022Z,33.94
2022-10-11T10:14:41.508Z,32.17
2022-10-11T10:19:51.959Z,30.37
2022-10-11T10:24:57.888Z,29.02
2022-10-11T10:30:09.924Z,28.46
2022-10-11T10:35:24.660Z,27.87
2022-10-11T10:40:39.473Z,27.15
2022-10-11T10:46:20.580Z,25.28
2022-10-11T10:51:58.448Z,23.85
2022-10-11T10:57:05.666Z,24.24
2022-10-11T11:07:50.629Z,25.25
2022-10-11T11:13:14.730Z,24.80
2022-10-11T11:18:36.583Z,24.09
2022-10-11T11:23:48.492Z,26.79
2022-10-11T11:29:00.821Z,31.06
2022-10-11T11:34:19.185Z,33.74
2022-10-11T11:39:39.918Z,31.31
2022-10-11T11:44:51.021Z,28.98
2022-10-11T11:50:19.608Z,30.24
2022-10-11T11:55:42.281Z,31.42
2022-10-11T12:01:03.935Z,33.59
2022-10-11T12:06:24.105Z,34.64
2022-10-11T12:11:34.641Z,34.44
2022-10-11T12:17:09.059Z,34.13
2022-10-11T12:22:36.892Z,31.53
2022-10-11T12:27:46.406Z,29.05
2022-10-11T12:32:51.405Z,29.17
2022-10-11T12:38:14.648Z,28.03
2022-10-11T12:43:55.741Z,25.29
2022-10-11T12:49:04.274Z,23.66
2022-10-11T12:54:28.998Z,23.80
2022-10-11T12:59:39.168Z,22.86
2022-10-11T13:04:42.177Z,21.93
2022-10-11T13:09:48.984Z,20.81
2022-10-11T13:15:04.579Z,20.11
2022-10-11T13:20:17.880Z,19.55
2022-10-11T13:25:28.113Z,18.36
2022-10-11T13:30:34.529Z,17.11
2022-10-11T13:35:38.873Z,16.68
2022-10-11T13:40:42.273Z,17.49
2022-10-11T13:45:45.250Z,20.02
2022-10-11T13:51:08.626Z,21.98
2022-10-11T13:56:12.762Z,21.21
2022-10-11T14:01:21.186Z,20.30
2022-10-11T14:06:25.679Z,21.76
2022-10-11T14:11:35.099Z,22.67
2022-10-11T14:16:38.354Z,21.13
2022-10-11T14:21:47.254Z,19.80
2022-10-11T14:26:53.226Z,19.15
2022-10-11T14:32:03.917Z,19.89
2022-10-11T14:37:06.946Z,19.92
2022-10-11T14:42:12.483Z,19.07
2022-10-11T14:47:17.030Z,18.06
2022-10-11T14:52:19.831Z,17.54
2022-10-11T14:57:22.737Z,16.87
2022-10-11T15:02:25.538Z,16.53
2022-10-11T15:07:28.957Z,16.05
2022-10-11T15:12:32.061Z,15.43
2022-10-11T15:17:34.982Z,14.90
2022-10-11T15:22:37.769Z,14.47
2022-10-11T15:27:42.515Z,14.13
2022-10-11T15:32:46.043Z,13.88
2022-10-11T15:37:52.936Z,13.72
2022-10-11T15:42:56.046Z,13.58
2022-10-11T15:47:59.839Z,13.41
2022-10-11T15:53:08.199Z,13.25
2022-10-11T15:58:24.722Z,13.12
2022-10-11T16:03:30.086Z,13.02
2022-10-11T16:08:34.523Z,12.91
2022-10-11T16:13:37.734Z,12.82
2022-10-11T16:18:40.946Z,12.73
2022-10-11T16:23:43.877Z,12.63
2022-10-11T16:28:48.285Z,12.53
2022-10-11T16:33:53.142Z,12.43
2022-10-11T16:38:55.945Z,12.32
2022-10-11T16:43:58.786Z,12.19
2022-10-11T16:49:01.857Z,12.03
2022-10-11T16:54:04.882Z,11.83
2022-10-11T16:59:08.493Z,11.61
2022-10-11T17:04:11.693Z,11.40
2022-10-11T17:09:14.841Z,11.21
2022-10-11T17:14:18.320Z,11.01
2022-10-11T17:19:21.120Z,10.82
2022-10-11T17:24:24.640Z,10.64
2022-10-11T17:29:27.448Z,10.50
2022-10-11T17:34:30.238Z,10.41
2022-10-11T17:39:33.155Z,10.32
2022-10-11T17:44:36.563Z,10.22
2022-10-11T17:49:39.469Z,10.11
2022-10-11T17:54:42.270Z,9.99
2022-10-11T17:59:45.217Z,9.88
2022-10-11T18:04:48.183Z,9.81
2022-10-11T18:09:51.053Z,9.76
2022-10-11T18:14:53.988Z,9.70
2022-10-11T18:19:56.792Z,9.62
2022-10-11T18:24:59.693Z,9.51
2022-10-11T18:30:02.608Z,9.42
2022-10-11T18:35:06.411Z,9.34
2022-10-11T18:40:10.226Z,9.27
2022-10-11T18:45:13.051Z,9.17
2022-10-11T18:50:15.954Z,9.07
2022-10-11T18:55:19.709Z,8.99
2022-10-11T19:00:40.174Z,8.95
2022-10-11T19:05:43.920Z,8.94
2022-10-11T19:10:46.720Z,8.97
2022-10-11T19:15:49.481Z,8.97
2022-10-11T19:20:53.118Z,8.97
2022-10-11T19:25:58.709Z,8.97
2022-10-11T19:31:07.804Z,8.94
2022-10-11T19:36:14.138Z,8.88
2022-10-11T19:41:19.403Z,8.79
2022-10-11T19:46:44.376Z,8.68
2022-10-11T19:51:45.692Z,8.57
2022-10-11T19:56:49.010Z,8.49
2022-10-11T20:01:53.329Z,8.46
2022-10-11T20:06:56.670Z,8.44
2022-10-11T20:11:59.562Z,8.40
2022-10-11T20:17:02.472Z,8.33
2022-10-11T20:22:05.207Z,8.22
2022-10-11T20:27:08.068Z,8.13
2022-10-11T20:32:11.223Z,8.09
2022-10-11T20:37:14.082Z,8.04
2022-10-11T20:42:16.885Z,7.97
2022-10-11T20:47:19.693Z,7.89
2022-10-11T20:52:22.692Z,7.86
2022-10-11T20:57:25.497Z,7.86
2022-10-11T21:02:28.807Z,7.90
2022-10-11T21:07:32.162Z,7.91
2022-10-11T21:12:35.729Z,7.87
2022-10-11T21:17:39.362Z,7.81
2022-10-11T21:22:42.168Z,7.76
2022-10-11T21:27:44.972Z,7.73
2022-10-11T21:32:47.975Z,7.75
2022-10-11T21:37:50.980Z,7.83
2022-10-11T21:42:53.800Z,7.97
2022-10-11T21:47:57.401Z,8.13
2022-10-11T21:53:00.927Z,8.23
2022-10-11T21:58:03.722Z,8.27
2022-10-11T22:03:06.526Z,8.27
2022-10-11T22:08:09.332Z,8.28
2022-10-11T22:13:12.335Z,8.32
2022-10-11T22:18:15.733Z,8.33
2022-10-11T22:23:19.474Z,8.33
2022-10-11T22:28:22.431Z,8.33
2022-10-11T22:33:25.491Z,8.37
2022-10-11T22:38:28.908Z,8.46
2022-10-11T22:43:32.426Z,8.53
2022-10-11T22:48:35.943Z,8.57
2022-10-11T22:53:39.055Z,8.57
2022-10-11T22:58:41.952Z,8.60
2022-10-11T23:03:49.441Z,8.62
2022-10-11T23:08:52.474Z,8.64
2022-10-11T23:13:55.274Z,8.64
2022-10-11T23:18:58.175Z,8.62
2022-10-11T23:24:01.186Z,8.62
2022-10-11T23:29:04.030Z,8.64
2022-10-11T23:34:06.787Z,8.61
2022-10-11T23:39:11.151Z,8.56
2022-10-11T23:44:14.130Z,8.46
2022-10-11T23:49:16.936Z,8.36
2022-10-11T23:54:19.735Z,8.32
2022-10-11T23:59:22.537Z,8.33
